Time;durP1;ratioP1;P1;durP2;ratioP2;P2;SDS_P1;SDS_P2;PMS_P1;PMS_P2;Temp;Humidity;BMP_temperature;BMP_pressure;BME280_temperature;BME280_humidity;BME280_pressure;Samples;Min_cycle;Max_cycle;Signal;HPM_P1;HPM_P2
2021/03/28 00:00:45;;;;;;;6.15;2.30;;;4.70;99.90;;;;;;4984581;28;20156;-72
2021/03/28 00:03:18;;;;;;;4.43;2.10;;;4.70;99.90;;;;;;4989735;28;20144;-72
2021/03/28 00:05:44;;;;;;;4.57;2.30;;;4.70;99.90;;;;;;4986251;28;20494;-72
2021/03/28 00:08:18;;;;;;;7.32;2.70;;;4.70;99.90;;;;;;4989429;28;20053;-72
2021/03/28 00:10:51;;;;;;;6.10;2.40;;;4.70;99.90;;;;;;4988500;28;20389;-72
2021/03/28 00:13:18;;;;;;;4.88;2.30;;;4.60;99.90;;;;;;4983739;28;20039;-72
2021/03/28 00:15:47;;;;;;;5.55;2.42;;;4.70;99.90;;;;;;4989773;28;20026;-72
2021/03/28 00:18:21;;;;;;;4.00;2.53;;;4.70;99.90;;;;;;4984180;28;20105;-72
2021/03/28 00:20:49;;;;;;;5.65;2.80;;;4.70;99.90;;;;;;4985305;28;20117;-72
2021/03/28 00:23:25;;;;;;;5.15;2.80;;;4.70;99.90;;;;;;4984192;28;20042;-72
2021/03/28 00:26:22;;;;;;;6.63;2.50;;;4.70;99.90;;;;;;4989251;28;20397;-72
2021/03/28 00:29:03;;;;;;;4.18;2.20;;;4.60;99.90;;;;;;4988207;28;20505;-71
2021/03/28 00:31:32;;;;;;;8.02;2.78;;;4.60;99.90;;;;;;4988021;28;20048;-73
2021/03/28 00:34:21;;;;;;;4.55;2.35;;;4.60;99.90;;;;;;4983848;28;20092;-72
2021/03/28 00:37:07;;;;;;;11.52;2.72;;;4.60;99.90;;;;;;4980235;28;20497;-72
2021/03/28 00:39:48;;;;;;;5.95;2.50;;;4.60;99.90;;;;;;4982225;28;20030;-72
2021/03/28 00:42:33;;;;;;;10.68;2.58;;;4.60;99.90;;;;;;4985324;28;20145;-72
2021/03/28 00:45:00;;;;;;;5.50;2.92;;;4.60;99.90;;;;;;4976112;28;20034;-72
2021/03/28 00:47:31;;;;;;;5.90;2.78;;;4.60;99.90;;;;;;4988200;28;20033;-72
2021/03/28 00:50:31;;;;;;;6.95;2.80;;;4.60;99.90;;;;;;4985789;28;20030;-72
2021/03/28 00:53:03;;;;;;;7.03;2.70;;;4.60;99.90;;;;;;4986897;28;20050;-72
2021/03/28 00:55:41;;;;;;;5.47;2.38;;;4.60;99.90;;;;;;4988457;28;20026;-71
2021/03/28 00:58:32;;;;;;;7.47;3.05;;;4.60;99.90;;;;;;4988115;28;20173;-72
2021/03/28 01:01:25;;;;;;;4.20;2.80;;;4.70;99.90;;;;;;4951877;28;20511;-72
2021/03/28 01:04:11;;;;;;;5.15;2.60;;;4.60;99.90;;;;;;4984292;28;20033;-72
2021/03/28 01:06:45;;;;;;;7.15;2.63;;;4.60;99.90;;;;;;4984569;28;20030;-72
2021/03/28 01:09:50;;;;;;;8.55;3.13;;;4.60;99.90;;;;;;4983151;28;20874;-72
2021/03/28 01:12:48;;;;;;;3.80;2.35;;;4.60;99.90;;;;;;4988459;28;20497;-72
2021/03/28 01:15:41;;;;;;;6.75;3.05;;;4.60;99.90;;;;;;4985123;28;20068;-74
2021/03/28 01:18:27;;;;;;;13.07;3.05;;;4.60;99.90;;;;;;4979946;28;20464;-73
2021/03/28 01:21:05;;;;;;;4.70;2.60;;;4.60;99.90;;;;;;4983850;28;20034;-73
2021/03/28 01:23:43;;;;;;;6.25;2.75;;;4.50;99.90;;;;;;4968735;28;20486;-73
2021/03/28 01:26:29;;;;;;;6.53;2.83;;;4.50;99.90;;;;;;4983280;28;20489;-73
2021/03/28 01:28:59;;;;;;;6.07;2.67;;;4.50;99.90;;;;;;4979007;28;20031;-73
2021/03/28 01:31:29;;;;;;;6.03;2.63;;;4.50;99.90;;;;;;4984589;28;20129;-73
2021/03/28 01:34:15;;;;;;;6.07;2.75;;;4.50;99.90;;;;;;4987006;28;20134;-74
2021/03/28 01:37:04;;;;;;;6.30;2.75;;;4.50;99.90;;;;;;4986328;28;20514;-73
2021/03/28 01:39:42;;;;;;;5.40;2.28;;;4.50;99.90;;;;;;4985684;28;20117;-73
2021/03/28 01:42:26;;;;;;;11.25;2.95;;;4.50;99.90;;;;;;4984619;28;20054;-74
2021/03/28 01:44:59;;;;;;;4.13;2.53;;;4.50;99.90;;;;;;4983285;28;20037;-73
2021/03/28 01:47:46;;;;;;;6.47;2.58;;;4.50;99.90;;;;;;4985106;28;20113;-74
2021/03/28 01:50:30;;;;;;;7.93;2.50;;;4.50;99.90;;;;;;4982067;28;20037;-74
2021/03/28 01:53:31;;;;;;;3.88;2.47;;;4.50;99.90;;;;;;4985542;28;20390;-74
2021/03/28 01:56:15;;;;;;;5.20;2.60;;;4.50;99.90;;;;;;4978175;28;20030;-74
2021/03/28 01:59:19;;;;;;;3.92;2.40;;;4.50;99.90;;;;;;4974714;28;20050;-74
2021/03/28 02:01:48;;;;;;;6.90;2.50;;;4.50;99.90;;;;;;4958595;28;20041;-74
2021/03/28 02:04:40;;;;;;;5.60;2.67;;;4.40;99.90;;;;;;4987893;28;20053;-74
2021/03/28 02:07:38;;;;;;;4.80;2.40;;;4.40;99.90;;;;;;4973183;28;20046;-74
2021/03/28 02:10:24;;;;;;;4.55;2.25;;;4.40;99.90;;;;;;4987046;28;20034;-74
2021/03/28 02:13:18;;;;;;;6.75;3.22;;;4.40;99.90;;;;;;4993358;28;20038;-73
2021/03/28 02:16:02;;;;;;;12.48;2.08;;;4.40;99.90;;;;;;4989253;28;20030;-74
2021/03/28 02:18:47;;;;;;;9.73;2.90;;;4.40;99.90;;;;;;4990757;28;20030;-74
2021/03/28 02:21:28;;;;;;;4.30;2.30;;;4.40;99.90;;;;;;4991333;28;20022;-74
2021/03/28 02:24:11;;;;;;;5.65;2.65;;;4.40;99.90;;;;;;4990694;28;20026;-73
2021/03/28 02:26:43;;;;;;;8.23;2.78;;;4.40;99.90;;;;;;4987190;28;20518;-73
2021/03/28 02:29:21;;;;;;;4.63;2.63;;;4.40;99.90;;;;;;4992773;28;20035;-73
2021/03/28 02:32:15;;;;;;;6.57;2.92;;;4.40;99.90;;;;;;4993735;28;20421;-72
2021/03/28 02:35:00;;;;;;;4.97;2.20;;;4.40;99.90;;;;;;4990242;28;20153;-73
2021/03/28 02:37:44;;;;;;;8.35;2.92;;;4.40;99.90;;;;;;4978193;28;20035;-72
2021/03/28 02:40:44;;;;;;;7.63;2.45;;;4.40;99.90;;;;;;4989437;28;20045;-73
2021/03/28 02:43:37;;;;;;;10.82;3.10;;;4.40;99.90;;;;;;4992458;28;20717;-73
2021/03/28 02:46:19;;;;;;;7.20;2.60;;;4.40;99.90;;;;;;4993447;28;20058;-73
2021/03/28 02:48:58;;;;;;;8.13;3.50;;;4.30;99.90;;;;;;4987678;28;20030;-73
2021/03/28 02:51:36;;;;;;;7.18;2.72;;;4.40;99.90;;;;;;4994804;28;20077;-73
2021/03/28 02:54:42;;;;;;;8.32;3.38;;;4.40;99.90;;;;;;4989181;28;20449;-73
2021/03/28 02:57:26;;;;;;;8.65;2.60;;;4.40;99.90;;;;;;4984549;28;20026;-72
2021/03/28 03:00:01;;;;;;;9.60;2.88;;;4.40;99.90;;;;;;4991508;28;20027;-72
2021/03/28 03:02:38;;;;;;;13.20;3.40;;;4.40;99.90;;;;;;4994684;28;20045;-73
2021/03/28 03:05:41;;;;;;;5.72;2.53;;;4.40;99.90;;;;;;4993326;28;20054;-73
2021/03/28 03:08:30;;;;;;;13.93;3.25;;;4.40;99.90;;;;;;4987914;28;20037;-73
2021/03/28 03:11:05;;;;;;;10.68;3.17;;;4.50;99.90;;;;;;4989262;28;20035;-72
2021/03/28 03:13:48;;;;;;;8.68;3.42;;;4.50;99.90;;;;;;4980867;28;20019;-73
2021/03/28 03:16:49;;;;;;;10.38;3.03;;;4.40;99.90;;;;;;4986349;28;20123;-73
2021/03/28 03:19:38;;;;;;;12.77;3.20;;;4.40;99.90;;;;;;4989368;28;20125;-73
2021/03/28 03:22:41;;;;;;;6.43;2.92;;;4.40;99.90;;;;;;4958437;28;20145;-72
2021/03/28 03:25:56;;;;;;;11.00;2.75;;;4.40;99.90;;;;;;4988517;28;20030;-74
2021/03/28 03:28:47;;;;;;;13.70;3.20;;;4.40;99.90;;;;;;4987578;28;20236;-73
2021/03/28 03:31:46;;;;;;;14.02;2.70;;;4.40;99.90;;;;;;4957682;28;20038;-73
2021/03/28 03:34:46;;;;;;;9.65;2.60;;;4.40;99.90;;;;;;4984828;28;20104;-73
2021/03/28 03:37:50;;;;;;;8.45;2.13;;;4.40;99.90;;;;;;4981949;28;20544;-72
2021/03/28 03:40:34;;;;;;;12.50;2.80;;;4.40;99.90;;;;;;4987315;28;20031;-72
2021/03/28 03:43:09;;;;;;;7.13;2.78;;;4.40;99.90;;;;;;4986291;28;20034;-73
2021/03/28 03:45:57;;;;;;;5.82;2.65;;;4.40;99.90;;;;;;4987212;28;20060;-73
2021/03/28 03:48:47;;;;;;;7.30;2.50;;;4.40;99.90;;;;;;4986562;28;20026;-73
2021/03/28 03:51:25;;;;;;;9.50;2.75;;;4.40;99.90;;;;;;4986542;28;20014;-74
2021/03/28 03:54:11;;;;;;;5.95;2.88;;;4.40;99.90;;;;;;4987663;28;20029;-73
2021/03/28 03:57:06;;;;;;;4.35;2.55;;;4.40;99.90;;;;;;4984664;28;20035;-73
2021/03/28 03:59:34;;;;;;;8.68;2.95;;;4.30;99.90;;;;;;4985058;28;20034;-73
2021/03/28 04:02:11;;;;;;;10.82;2.55;;;4.40;99.90;;;;;;4988362;28;20045;-73
2021/03/28 04:05:23;;;;;;;6.75;2.75;;;4.30;99.90;;;;;;4987318;28;20506;-73
2021/03/28 04:08:05;;;;;;;9.48;2.80;;;4.40;99.90;;;;;;4983558;28;20085;-73
2021/03/28 04:10:55;;;;;;;11.57;2.90;;;4.40;99.90;;;;;;4986530;28;20681;-73
2021/03/28 04:13:33;;;;;;;8.60;2.78;;;4.30;99.90;;;;;;4984734;28;20037;-73
2021/03/28 04:16:17;;;;;;;5.13;2.30;;;4.40;99.90;;;;;;4987883;28;20031;-73
2021/03/28 04:18:54;;;;;;;6.55;2.38;;;4.40;99.90;;;;;;4983816;28;20027;-73
2021/03/28 04:21:41;;;;;;;15.80;2.53;;;4.40;99.90;;;;;;4987366;28;20062;-74
2021/03/28 04:24:13;;;;;;;12.18;2.60;;;4.40;99.90;;;;;;4986284;28;20465;-74
2021/03/28 04:26:51;;;;;;;6.07;2.72;;;4.30;99.90;;;;;;4988094;28;20030;-74
2021/03/28 04:29:17;;;;;;;4.00;2.45;;;4.30;99.90;;;;;;4985556;28;20031;-74
2021/03/28 04:32:05;;;;;;;9.25;2.65;;;4.40;99.90;;;;;;4984128;28;20125;-74
2021/03/28 04:34:49;;;;;;;11.02;2.30;;;4.40;99.90;;;;;;4986609;28;20113;-73
2021/03/28 04:37:33;;;;;;;5.07;2.38;;;4.40;99.90;;;;;;4980902;28;20153;-73
2021/03/28 04:40:14;;;;;;;8.18;2.33;;;4.40;99.90;;;;;;4985958;28;20492;-74
2021/03/28 04:43:11;;;;;;;8.43;2.60;;;4.40;99.90;;;;;;4985923;28;20018;-73
2021/03/28 04:46:02;;;;;;;5.75;2.15;;;4.40;99.90;;;;;;4986467;28;20118;-74
2021/03/28 04:48:38;;;;;;;8.37;2.97;;;4.40;99.90;;;;;;4987319;28;20081;-73
2021/03/28 04:51:20;;;;;;;4.53;2.13;;;4.40;99.90;;;;;;4985307;28;20102;-74
2021/03/28 04:54:48;;;;;;;5.78;2.40;;;4.50;99.90;;;;;;4986319;28;20049;-73
2021/03/28 04:57:19;;;;;;;10.88;2.50;;;4.50;99.90;;;;;;4941889;28;20114;-73
2021/03/28 05:00:27;;;;;;;4.65;2.20;;;4.50;99.90;;;;;;4985184;28;20019;-73
2021/03/28 05:03:21;;;;;;;10.35;2.55;;;4.50;99.90;;;;;;4926202;29;20102;-74
2021/03/28 05:05:53;;;;;;;6.45;1.95;;;4.50;99.90;;;;;;4986977;28;20062;-74
2021/03/28 05:08:32;;;;;;;;;;;4.50;99.90;;;;;;4984103;28;20038;-74
2021/03/28 05:11:27;;;;;;;9.60;2.38;;;4.50;99.90;;;;;;4983777;28;20004;-73
2021/03/28 05:14:14;;;;;;;5.07;2.30;;;4.50;99.90;;;;;;4985954;28;20022;-73
2021/03/28 05:17:00;;;;;;;8.20;2.53;;;4.60;99.90;;;;;;4986176;28;20393;-73
2021/03/28 05:19:48;;;;;;;12.73;2.60;;;4.60;99.90;;;;;;4983241;28;20034;-74
2021/03/28 05:22:35;;;;;;;8.05;2.50;;;4.60;99.90;;;;;;4983815;28;20566;-73
2021/03/28 05:25:22;;;;;;;10.50;2.72;;;4.60;99.90;;;;;;4985128;28;20039;-73
2021/03/28 05:28:15;;;;;;;11.15;1.98;;;4.60;99.90;;;;;;4985857;28;20029;-74
2021/03/28 05:31:11;;;;;;;11.00;2.28;;;4.70;99.90;;;;;;4981301;28;20460;-73
2021/03/28 05:34:07;;;;;;;5.80;2.17;;;4.70;99.90;;;;;;4970440;28;20054;-73
2021/03/28 05:37:12;;;;;;;27.15;3.28;;;4.70;99.90;;;;;;4955989;28;20101;-75
2021/03/28 05:40:10;;;;;;;7.13;2.20;;;4.70;99.90;;;;;;4954605;28;20089;-74
2021/03/28 05:43:06;;;;;;;6.43;2.47;;;4.70;99.90;;;;;;4959707;28;20058;-75
2021/03/28 05:46:04;;;;;;;5.45;2.40;;;4.70;99.90;;;;;;4953114;28;20114;-73
2021/03/28 05:48:50;;;;;;;7.80;2.30;;;4.70;99.90;;;;;;4954741;28;20031;-74
2021/03/28 05:51:41;;;;;;;5.47;2.40;;;4.80;99.90;;;;;;4953791;28;20560;-74
2021/03/28 05:54:38;;;;;;;9.23;2.38;;;4.80;99.90;;;;;;4951230;28;20031;-73
2021/03/28 05:57:22;;;;;;;6.65;2.50;;;4.80;99.90;;;;;;4958317;28;20046;-73
2021/03/28 06:00:02;;;;;;;5.15;2.40;;;4.80;99.90;;;;;;4961039;28;20053;-73
2021/03/28 06:02:50;;;;;;;7.15;2.30;;;4.90;99.90;;;;;;4957898;28;20125;-73
2021/03/28 06:05:54;;;;;;;6.53;2.53;;;4.90;99.90;;;;;;4956615;28;20057;-73
2021/03/28 06:09:21;;;;;;;4.47;2.55;;;4.90;99.90;;;;;;4956801;28;20509;-74
2021/03/28 06:12:02;;;;;;;7.63;2.55;;;5.00;99.90;;;;;;4960102;28;20062;-74
2021/03/28 06:14:56;;;;;;;11.55;2.95;;;5.00;99.90;;;;;;4952925;28;20041;-75
2021/03/28 06:17:36;;;;;;;8.38;2.35;;;5.10;99.90;;;;;;4957794;28;20162;-75
2021/03/28 06:20:28;;;;;;;4.65;2.80;;;5.20;99.90;;;;;;4959372;28;20042;-75
2021/03/28 06:23:00;;;;;;;6.60;2.58;;;5.20;99.90;;;;;;4956217;28;20031;-75
2021/03/28 06:25:37;;;;;;;7.90;3.03;;;5.40;99.90;;;;;;4954830;28;20031;-75
2021/03/28 06:28:39;;;;;;;7.65;2.55;;;5.40;99.90;;;;;;4962680;28;20501;-74
2021/03/28 06:31:32;;;;;;;9.57;2.50;;;5.50;99.90;;;;;;4954207;28;20061;-74
2021/03/28 06:34:06;;;;;;;7.70;2.30;;;5.50;99.90;;;;;;4972960;28;20047;-74
2021/03/28 06:36:35;;;;;;;4.32;2.60;;;5.50;99.90;;;;;;4974131;28;20026;-74
2021/03/28 06:39:39;;;;;;;7.85;2.97;;;5.60;99.90;;;;;;4974284;28;20605;-74
2021/03/28 06:42:12;;;;;;;6.30;2.72;;;5.60;99.90;;;;;;4977081;28;20030;-74
2021/03/28 06:45:01;;;;;;;6.43;2.65;;;5.60;99.90;;;;;;4973874;28;20053;-74
2021/03/28 06:48:04;;;;;;;8.57;2.55;;;5.70;99.90;;;;;;4972124;28;20038;-74
2021/03/28 06:50:58;;;;;;;7.85;2.88;;;5.70;99.90;;;;;;4974233;28;20027;-74
2021/03/28 06:53:57;;;;;;;12.50;2.90;;;5.70;99.90;;;;;;4977241;28;20031;-74
2021/03/28 06:56:48;;;;;;;5.28;3.03;;;5.80;99.90;;;;;;4973181;28;20085;-74
2021/03/28 06:59:31;;;;;;;6.45;2.70;;;5.80;99.90;;;;;;4979885;28;20034;-74
2021/03/28 07:02:34;;;;;;;9.10;2.90;;;5.90;99.90;;;;;;4979946;28;20044;-74
2021/03/28 07:05:21;;;;;;;5.03;2.45;;;6.00;99.90;;;;;;4980251;28;20058;-74
2021/03/28 07:08:19;;;;;;;4.97;2.75;;;6.00;99.90;;;;;;4970784;28;20121;-74
2021/03/28 07:11:31;;;;;;;7.72;3.30;;;6.10;99.90;;;;;;4978211;28;20025;-75
2021/03/28 07:14:15;;;;;;;11.05;2.78;;;6.20;99.90;;;;;;4982982;28;20031;-74
2021/03/28 07:17:02;;;;;;;6.75;2.88;;;6.30;99.90;;;;;;4985853;28;20038;-74
2021/03/28 07:20:08;;;;;;;12.35;2.70;;;6.40;99.90;;;;;;4978350;28;20041;-75
2021/03/28 07:22:55;;;;;;;6.63;2.60;;;6.50;99.90;;;;;;4979034;28;20117;-74
2021/03/28 07:25:24;;;;;;;6.57;3.22;;;6.50;99.90;;;;;;4969489;28;20050;-74
2021/03/28 07:28:28;;;;;;;9.05;2.78;;;6.60;99.90;;;;;;4977740;28;20023;-74
2021/03/28 07:31:15;;;;;;;11.45;2.78;;;6.70;99.90;;;;;;4977916;28;20026;-74
2021/03/28 07:34:03;;;;;;;7.20;2.55;;;6.80;99.90;;;;;;4965956;28;20073;-74
2021/03/28 07:37:09;;;;;;;9.60;3.00;;;6.90;99.90;;;;;;4902434;28;20031;-74
2021/03/28 07:40:12;;;;;;;5.43;2.72;;;6.90;99.90;;;;;;4964648;28;20542;-74
2021/03/28 07:43:05;;;;;;;8.95;2.35;;;7.00;98.60;;;;;;4949340;28;20039;-74
2021/03/28 07:45:52;;;;;;;11.73;2.90;;;7.10;97.90;;;;;;4960691;28;20046;-74
2021/03/28 07:48:53;;;;;;;7.40;2.67;;;7.10;97.60;;;;;;4964419;28;20118;-76
2021/03/28 07:51:43;;;;;;;6.63;2.63;;;7.20;97.30;;;;;;4960441;28;20027;-76
2021/03/28 07:54:23;;;;;;;6.45;2.50;;;7.30;96.20;;;;;;4955263;28;20031;-76
2021/03/28 07:57:24;;;;;;;7.55;2.60;;;7.40;96.10;;;;;;4961286;28;20038;-76
2021/03/28 08:00:14;;;;;;;7.95;2.30;;;7.50;96.10;;;;;;4962463;28;20031;-75
2021/03/28 08:03:05;;;;;;;4.88;2.20;;;7.70;94.60;;;;;;4943599;28;20043;-76
2021/03/28 08:06:07;;;;;;;5.50;2.28;;;7.90;93.00;;;;;;4960495;28;20142;-77
2021/03/28 08:08:47;;;;;;;7.25;2.63;;;7.90;92.30;;;;;;4962144;28;20037;-74
2021/03/28 08:11:28;;;;;;;9.82;2.25;;;8.00;91.30;;;;;;4958698;28;20023;-73
2021/03/28 08:14:22;;;;;;;5.63;2.33;;;8.00;91.10;;;;;;4960147;28;20029;-73
2021/03/28 08:17:01;;;;;;;4.28;1.98;;;8.00;90.40;;;;;;4960270;28;20297;-75
2021/03/28 08:19:52;;;;;;;7.47;2.60;;;8.00;90.70;;;;;;4965256;28;20053;-74
2021/03/28 08:22:41;;;;;;;5.80;1.75;;;8.00;90.40;;;;;;4953751;28;20036;-74
2021/03/28 08:25:26;;;;;;;7.53;1.95;;;8.00;89.20;;;;;;4969562;28;20026;-74
2021/03/28 08:28:19;;;;;;;6.75;2.15;;;8.10;90.50;;;;;;4967302;28;20019;-74
2021/03/28 08:31:15;;;;;;;4.00;2.10;;;8.20;90.40;;;;;;4968659;28;20034;-73
2021/03/28 08:34:22;;;;;;;7.07;1.80;;;8.30;89.20;;;;;;4967263;28;20042;-74
2021/03/28 08:37:00;;;;;;;7.97;2.38;;;8.40;86.40;;;;;;4966608;28;20093;-74
2021/03/28 08:39:38;;;;;;;4.70;1.70;;;8.50;87.50;;;;;;4964827;28;20046;-74
2021/03/28 08:42:26;;;;;;;3.22;1.70;;;8.80;84.20;;;;;;4966815;28;20445;-74
2021/03/28 08:45:38;;;;;;;5.35;1.98;;;8.90;84.70;;;;;;4966669;28;20042;-74
2021/03/28 08:48:26;;;;;;;9.73;1.90;;;9.10;83.70;;;;;;4964512;28;20035;-74
2021/03/28 08:51:17;;;;;;;7.97;3.05;;;9.20;81.00;;;;;;4967167;28;20106;-74
2021/03/28 08:53:43;;;;;;;6.50;1.70;;;9.20;80.60;;;;;;4966751;28;20070;-74
2021/03/28 08:56:28;;;;;;;6.82;2.25;;;9.30;80.80;;;;;;4964501;28;20027;-75
2021/03/28 08:59:32;;;;;;;6.05;2.05;;;9.30;78.10;;;;;;4966612;28;20042;-74
2021/03/28 09:02:21;;;;;;;7.90;2.05;;;9.30;78.80;;;;;;4964899;28;20047;-74
2021/03/28 09:05:29;;;;;;;5.05;1.88;;;9.40;78.70;;;;;;4955500;28;20552;-74
2021/03/28 09:08:21;;;;;;;2.92;1.52;;;9.50;77.20;;;;;;4965813;28;20168;-74
2021/03/28 09:11:32;;;;;;;8.27;2.80;;;9.60;75.50;;;;;;4966994;28;20438;-74
2021/03/28 09:14:35;;;;;;;7.07;2.03;;;9.70;75.60;;;;;;4935217;28;20402;-74
2021/03/28 09:17:33;;;;;;;10.32;1.95;;;9.80;75.90;;;;;;4927474;28;20094;-73
2021/03/28 09:20:18;;;;;;;5.60;2.25;;;10.00;76.20;;;;;;4964133;28;20402;-75
2021/03/28 09:22:49;;;;;;;4.80;1.90;;;10.10;75.70;;;;;;4964689;28;20038;-75
2021/03/28 09:25:40;;;;;;;5.22;2.05;;;10.20;75.10;;;;;;4967884;28;20015;-75
2021/03/28 09:28:46;;;;;;;8.10;2.07;;;10.20;73.40;;;;;;4967056;28;20080;-75
2021/03/28 09:31:22;;;;;;;6.03;1.92;;;10.20;73.10;;;;;;4965276;28;20396;-75
2021/03/28 09:34:16;;;;;;;7.43;1.75;;;10.20;72.80;;;;;;4981578;28;20184;-74
2021/03/28 09:37:12;;;;;;;5.05;1.60;;;10.20;73.30;;;;;;4985183;28;20052;-74
2021/03/28 09:39:55;;;;;;;3.97;2.58;;;10.30;71.80;;;;;;4986257;28;20022;-74
2021/03/28 09:42:42;;;;;;;4.38;1.70;;;10.40;70.80;;;;;;4982150;28;21521;-75
2021/03/28 09:45:39;;;;;;;7.72;2.13;;;10.50;71.20;;;;;;4986264;28;20034;-74
2021/03/28 09:48:20;;;;;;;5.70;1.85;;;10.60;69.40;;;;;;4987057;28;20117;-74
2021/03/28 09:51:20;;;;;;;5.60;1.95;;;10.80;69.90;;;;;;4986983;28;20304;-74
2021/03/28 09:54:08;;;;;;;3.95;1.83;;;10.80;67.70;;;;;;4985563;28;20037;-75
2021/03/28 09:56:58;;;;;;;5.57;2.03;;;10.80;68.50;;;;;;4972749;28;20081;-75
2021/03/28 09:59:45;;;;;;;8.27;2.03;;;10.90;68.30;;;;;;4972634;28;20775;-76
2021/03/28 10:02:18;;;;;;;5.28;2.30;;;11.10;67.20;;;;;;4973547;28;20554;-79
2021/03/28 10:05:02;;;;;;;8.93;1.92;;;11.20;68.30;;;;;;4971083;28;20648;-74
2021/03/28 10:07:51;;;;;;;9.27;1.70;;;11.30;65.70;;;;;;4973441;28;20057;-73
2021/03/28 10:10:17;;;;;;;6.32;2.05;;;11.30;64.30;;;;;;4978994;28;20271;-73
2021/03/28 10:12:52;;;;;;;6.85;2.08;;;11.30;63.90;;;;;;4972603;28;20031;-75
2021/03/28 10:15:20;;;;;;;5.38;2.13;;;11.20;64.40;;;;;;4976268;28;20019;-74
2021/03/28 10:18:13;;;;;;;6.85;2.35;;;11.20;64.50;;;;;;4976007;28;20030;-73
2021/03/28 10:20:56;;;;;;;5.10;1.80;;;11.20;63.60;;;;;;4972282;28;20153;-74
2021/03/28 10:23:48;;;;;;;8.77;2.72;;;11.20;64.40;;;;;;4975953;28;20070;-74
2021/03/28 10:26:52;;;;;;;7.47;2.50;;;11.10;63.60;;;;;;4972739;28;20108;-74
2021/03/28 10:29:29;;;;;;;6.25;2.05;;;11.20;64.20;;;;;;4943319;28;20053;-73
2021/03/28 10:32:25;;;;;;;5.88;2.05;;;11.30;64.30;;;;;;4978731;28;20553;-74
2021/03/28 10:35:21;;;;;;;8.23;1.90;;;11.40;62.80;;;;;;4978798;28;20050;-73
2021/03/28 10:38:08;;;;;;;11.70;2.30;;;11.50;63.30;;;;;;4979476;28;20409;-75
2021/03/28 10:41:07;;;;;;;3.60;1.80;;;11.70;63.20;;;;;;4978432;28;20041;-73
2021/03/28 10:44:02;;;;;;;12.63;2.45;;;11.80;62.30;;;;;;4976546;28;20051;-74
2021/03/28 10:47:09;;;;;;;8.73;2.00;;;11.80;63.70;;;;;;4979364;28;20394;-73
2021/03/28 10:50:11;;;;;;;4.65;1.85;;;11.80;62.50;;;;;;4977676;28;20042;-74
2021/03/28 10:52:54;;;;;;;5.53;2.15;;;11.60;62.70;;;;;;4980442;28;20030;-73
2021/03/28 10:55:29;;;;;;;7.45;2.38;;;11.60;63.20;;;;;;4983184;28;20949;-71
2021/03/28 10:58:19;;;;;;;7.28;2.25;;;11.60;63.30;;;;;;4980394;28;20074;-75
2021/03/28 11:01:14;;;;;;;6.43;2.25;;;11.70;64.50;;;;;;4973542;28;20065;-74
2021/03/28 11:03:56;;;;;;;9.48;2.22;;;12.10;64.30;;;;;;4947617;28;20077;-70
2021/03/28 11:07:11;;;;;;;4.28;2.08;;;12.40;63.10;;;;;;4978501;28;20117;-78
2021/03/28 11:09:59;;;;;;;5.93;2.22;;;12.70;62.00;;;;;;4980506;28;20039;-71
2021/03/28 11:12:50;;;;;;;5.22;2.33;;;13.00;61.00;;;;;;4980161;28;20034;-70
2021/03/28 11:15:57;;;;;;;6.97;1.90;;;13.40;58.70;;;;;;4982938;28;20015;-70
2021/03/28 11:18:49;;;;;;;5.05;2.00;;;13.80;58.70;;;;;;4980245;28;20073;-71
2021/03/28 11:21:40;;;;;;;4.53;1.98;;;13.90;57.80;;;;;;4974769;28;20165;-73
2021/03/28 11:24:39;;;;;;;4.18;2.17;;;14.20;57.20;;;;;;4983631;28;20027;-71
2021/03/28 11:27:13;;;;;;;5.00;1.80;;;14.20;56.00;;;;;;4985483;28;20050;-72
2021/03/28 11:30:03;;;;;;;18.05;2.92;;;14.00;55.80;;;;;;4993346;28;20081;-73
2021/03/28 11:32:46;;;;;;;4.80;1.42;;;13.80;56.60;;;;;;4987672;28;20391;-72
2021/03/28 11:35:11;;;;;;;6.32;1.98;;;13.70;56.70;;;;;;4980052;28;20022;-72
2021/03/28 11:37:50;;;;;;;6.00;1.92;;;13.60;56.90;;;;;;4980244;28;20146;-72
2021/03/28 11:40:25;;;;;;;7.95;1.80;;;13.40;57.00;;;;;;4979516;28;20027;-73
2021/03/28 11:43:01;;;;;;;5.05;2.25;;;13.40;57.50;;;;;;4983541;28;20694;-73
2021/03/28 11:45:47;;;;;;;6.10;2.28;;;13.90;56.90;;;;;;4980335;28;20089;-72
2021/03/28 11:48:32;;;;;;;5.18;2.05;;;14.70;55.50;;;;;;4979657;28;20104;-72
2021/03/28 11:51:20;;;;;;;7.22;1.67;;;15.40;53.40;;;;;;4986801;28;20030;-73
2021/03/28 11:53:49;;;;;;;8.73;2.30;;;15.60;52.40;;;;;;4980561;28;20046;-72
2021/03/28 11:57:05;;;;;;;8.95;2.25;;;15.50;52.10;;;;;;4982329;28;20076;-72
2021/03/28 11:59:51;;;;;;;5.40;1.70;;;14.80;53.00;;;;;;4922262;29;20106;-76
2021/03/28 12:02:28;;;;;;;26.42;2.38;;;14.30;55.00;;;;;;4978825;28;20093;-70
2021/03/28 12:05:00;;;;;;;5.82;2.03;;;14.10;56.50;;;;;;4960042;28;20026;-74
2021/03/28 12:07:30;;;;;;;8.77;1.58;;;13.90;56.60;;;;;;4980664;28;20563;-74
2021/03/28 12:10:02;;;;;;;5.65;2.08;;;13.80;57.20;;;;;;4976735;28;20032;-75
2021/03/28 12:12:39;;;;;;;6.20;1.98;;;13.70;57.30;;;;;;4984868;28;20034;-74
2021/03/28 12:15:42;;;;;;;4.85;2.10;;;13.80;58.50;;;;;;4987616;28;20033;-74
2021/03/28 12:18:23;;;;;;;9.80;1.90;;;14.00;57.70;;;;;;4984497;28;20088;-74
2021/03/28 12:21:08;;;;;;;6.07;1.60;;;14.00;56.90;;;;;;4975935;28;20037;-73
2021/03/28 12:24:03;;;;;;;8.68;1.40;;;13.90;57.00;;;;;;4980633;28;20030;-78
2021/03/28 12:26:35;;;;;;;2.50;1.35;;;14.10;57.20;;;;;;4984189;28;20061;-74
2021/03/28 12:29:05;;;;;;;;;;;14.90;55.70;;;;;;4981158;28;20030;-73
2021/03/28 12:31:47;;;;;;;4.15;1.17;;;15.70;54.80;;;;;;4978942;28;19909;-73
2021/03/28 12:34:32;;;;;;;6.25;1.60;;;16.30;52.80;;;;;;4979979;28;20257;-73
2021/03/28 12:37:10;;;;;;;3.95;1.52;;;16.50;51.20;;;;;;4983627;28;20474;-75
2021/03/28 12:40:00;;;;;;;5.55;1.90;;;17.00;51.10;;;;;;4980227;28;20048;-73
2021/03/28 12:42:43;;;;;;;3.92;1.40;;;16.90;50.00;;;;;;4976649;28;20027;-74
2021/03/28 12:45:08;;;;;;;4.60;1.42;;;16.30;51.20;;;;;;4970320;28;20026;-74
2021/03/28 12:47:49;;;;;;;2.80;1.30;;;15.80;52.90;;;;;;4974765;28;20490;-75
2021/03/28 12:50:15;;;;;;;4.90;1.60;;;15.10;54.10;;;;;;4980505;28;20019;-75
2021/03/28 12:52:42;;;;;;;3.33;1.30;;;14.60;55.30;;;;;;4979011;28;20045;-77
2021/03/28 12:55:15;;;;;;;4.50;1.40;;;14.40;56.70;;;;;;4977819;28;20079;-74
2021/03/28 12:58:07;;;;;;;2.78;1.45;;;14.40;58.30;;;;;;4978758;28;20084;-73
2021/03/28 13:00:54;;;;;;;2.17;0.98;;;14.40;57.30;;;;;;4975558;28;20034;-74
2021/03/28 13:03:43;;;;;;;3.65;1.35;;;14.90;57.20;;;;;;4977361;28;20049;-75
2021/03/28 13:06:18;;;;;;;2.05;1.10;;;15.60;55.40;;;;;;4977337;28;20030;-76
2021/03/28 13:08:49;;;;;;;3.63;1.08;;;15.60;55.00;;;;;;4979566;28;20027;-74
2021/03/28 13:11:16;;;;;;;4.28;1.23;;;15.50;55.60;;;;;;4978405;28;20034;-75
2021/03/28 13:13:46;;;;;;;2.38;1.33;;;15.60;56.10;;;;;;4962134;28;20030;-76
2021/03/28 13:16:26;;;;;;;3.03;1.00;;;15.80;56.70;;;;;;4976263;28;20030;-75
2021/03/28 13:19:12;;;;;;;1.90;0.90;;;15.80;54.90;;;;;;4978533;28;20398;-76
2021/03/28 13:21:41;;;;;;;3.42;1.17;;;15.70;55.40;;;;;;4975876;28;20029;-75
2021/03/28 13:24:16;;;;;;;6.10;1.55;;;15.40;56.50;;;;;;4978791;28;20037;-76
2021/03/28 13:27:02;;;;;;;5.82;1.30;;;15.00;58.00;;;;;;4977452;28;20121;-77
2021/03/28 13:29:38;;;;;;;8.05;1.15;;;14.70;58.50;;;;;;4978911;28;20034;-76
2021/03/28 13:32:31;;;;;;;3.85;1.00;;;14.50;59.20;;;;;;4976109;28;20041;-77
2021/03/28 13:35:28;;;;;;;2.00;1.13;;;14.10;60.10;;;;;;4978191;28;20489;-77
2021/03/28 13:37:58;;;;;;;8.23;1.40;;;13.90;61.10;;;;;;4971842;28;20112;-79
2021/03/28 13:40:48;;;;;;;3.70;1.17;;;13.60;62.20;;;;;;4974507;28;20122;-76
2021/03/28 13:43:20;;;;;;;2.50;1.30;;;13.40;63.70;;;;;;4981917;28;20030;-78
2021/03/28 13:45:49;;;;;;;24.17;2.08;;;13.20;64.70;;;;;;4984226;28;20038;-80
2021/03/28 13:48:24;;;;;;;4.57;1.40;;;13.20;65.20;;;;;;4982150;28;20118;-77
2021/03/28 13:51:17;;;;;;;7.55;1.33;;;13.20;65.30;;;;;;4964101;28;20023;-79
2021/03/28 13:54:14;;;;;;;6.72;1.48;;;13.20;65.10;;;;;;4985556;28;20093;-82
2021/03/28 13:56:54;;;;;;;3.17;1.10;;;13.20;65.40;;;;;;4985407;28;20117;-78
2021/03/28 13:59:28;;;;;;;5.50;1.35;;;13.20;65.20;;;;;;4982296;28;20034;-79
2021/03/28 14:02:12;;;;;;;2.63;1.08;;;13.20;65.30;;;;;;4981399;28;20041;-77
2021/03/28 14:04:42;;;;;;;5.40;1.25;;;13.20;65.60;;;;;;4979734;28;20227;-75
2021/03/28 14:07:15;;;;;;;5.18;1.35;;;13.20;65.40;;;;;;4984542;28;20026;-78
2021/03/28 14:09:47;;;;;;;5.97;0.93;;;13.30;65.50;;;;;;4985713;28;20121;-77
2021/03/28 14:12:25;;;;;;;;;;;13.30;65.50;;;;;;4988001;28;20037;-77
2021/03/28 14:15:07;;;;;;;3.75;2.35;;;13.30;65.80;;;;;;4983539;28;20000;-76
2021/03/28 14:17:35;;;;;;;5.03;1.63;;;13.30;65.70;;;;;;4986726;28;20030;-77
2021/03/28 14:20:15;;;;;;;7.55;1.42;;;13.30;65.00;;;;;;4985390;28;20030;-77
2021/03/28 14:22:54;;;;;;;5.07;1.55;;;13.30;66.20;;;;;;4986810;28;20030;-77
2021/03/28 14:25:45;;;;;;;4.43;1.42;;;13.40;65.30;;;;;;4984266;28;20129;-73
2021/03/28 14:28:34;;;;;;;5.70;1.60;;;13.40;66.10;;;;;;4985871;28;20037;-74
2021/03/28 14:31:01;;;;;;;5.13;1.42;;;13.50;65.30;;;;;;4984330;28;20031;-72